sensor_id;sensor_type;location;lat;lon;timestamp;pressure;altitude;pressure_sealevel;temperature;humidity
11672;BME280;5892;43.412;24.612;2022-09-09T00:01:59;99919.44;;;21.00;82.44
11672;BME280;5892;43.412;24.612;2022-09-09T00:04:29;99893.53;;;20.89;82.75
11672;BME280;5892;43.412;24.612;2022-09-09T00:07:03;99925.81;;;20.97;83.31
11672;BME280;5892;43.412;24.612;2022-09-09T00:09:34;99919.78;;;20.88;83.87
11672;BME280;5892;43.412;24.612;2022-09-09T00:12:10;99928.59;;;20.93;83.84
11672;BME280;5892;43.412;24.612;2022-09-09T00:14:45;99920.97;;;20.87;84.18
11672;BME280;5892;43.412;24.612;2022-09-09T00:17:26;99922.59;;;20.91;84.14
11672;BME280;5892;43.412;24.612;2022-09-09T00:20:02;99925.72;;;20.83;84.92
11672;BME280;5892;43.412;24.612;2022-09-09T00:22:39;99924.88;;;20.79;84.99
11672;BME280;5892;43.412;24.612;2022-09-09T00:25:11;99916.84;;;20.63;85.10
11672;BME280;5892;43.412;24.612;2022-09-09T00:27:41;99921.94;;;20.54;86.15
11672;BME280;5892;43.412;24.612;2022-09-09T00:30:16;99933.34;;;20.35;86.99
11672;BME280;5892;43.412;24.612;2022-09-09T00:32:47;99917.03;;;20.37;86.21
11672;BME280;5892;43.412;24.612;2022-09-09T00:35:17;99923.25;;;20.19;86.87
11672;BME280;5892;43.412;24.612;2022-09-09T00:37:46;99914.84;;;20.16;87.21
11672;BME280;5892;43.412;24.612;2022-09-09T00:40:23;99912.63;;;20.32;86.87
11672;BME280;5892;43.412;24.612;2022-09-09T00:43:01;99907.06;;;20.32;86.32
11672;BME280;5892;43.412;24.612;2022-09-09T00:45:51;99909.91;;;20.36;86.24
11672;BME280;5892;43.412;24.612;2022-09-09T00:48:29;99902.69;;;20.31;86.29
11672;BME280;5892;43.412;24.612;2022-09-09T00:51:06;99909.41;;;20.30;85.95
11672;BME280;5892;43.412;24.612;2022-09-09T00:53:42;99881.53;;;20.23;85.55
11672;BME280;5892;43.412;24.612;2022-09-09T00:56:13;99891.16;;;20.33;85.29
11672;BME280;5892;43.412;24.612;2022-09-09T00:58:42;99890.78;;;20.34;85.41
11672;BME280;5892;43.412;24.612;2022-09-09T01:01:11;99872.72;;;20.14;85.52
11672;BME280;5892;43.412;24.612;2022-09-09T01:03:43;99795.31;;;19.72;85.78
11672;BME280;5892;43.412;24.612;2022-09-09T01:06:16;99875.97;;;20.23;86.32
11672;BME280;5892;43.412;24.612;2022-09-09T01:09:04;99883.19;;;20.31;86.47
11672;BME280;5892;43.412;24.612;2022-09-09T01:11:41;99784.91;;;19.62;86.68
11672;BME280;5892;43.412;24.612;2022-09-09T01:14:20;99879.09;;;20.18;87.19
11672;BME280;5892;43.412;24.612;2022-09-09T01:16:54;99864.03;;;20.22;87.28
11672;BME280;5892;43.412;24.612;2022-09-09T01:19:40;99865.63;;;20.20;86.35
11672;BME280;5892;43.412;24.612;2022-09-09T01:22:17;99872.03;;;20.27;84.52
11672;BME280;5892;43.412;24.612;2022-09-09T01:25:07;99869.19;;;20.20;84.33
11672;BME280;5892;43.412;24.612;2022-09-09T01:27:38;99866.34;;;20.13;84.86
11672;BME280;5892;43.412;24.612;2022-09-09T01:30:09;99864.75;;;20.09;84.65
11672;BME280;5892;43.412;24.612;2022-09-09T01:32:42;99863.63;;;20.20;84.01
11672;BME280;5892;43.412;24.612;2022-09-09T01:35:12;99863.19;;;20.15;83.93
11672;BME280;5892;43.412;24.612;2022-09-09T01:37:41;99872.69;;;20.10;84.21
11672;BME280;5892;43.412;24.612;2022-09-09T01:40:08;99872.31;;;20.12;84.31
11672;BME280;5892;43.412;24.612;2022-09-09T01:42:35;99864.75;;;20.09;84.69
11672;BME280;5892;43.412;24.612;2022-09-09T01:45:05;99859.94;;;20.06;84.67
11672;BME280;5892;43.412;24.612;2022-09-09T01:47:32;99854.31;;;19.99;84.47
11672;BME280;5892;43.412;24.612;2022-09-09T01:49:59;99871.88;;;20.10;84.67
11672;BME280;5892;43.412;24.612;2022-09-09T01:52:28;99851.81;;;19.86;85.34
11672;BME280;5892;43.412;24.612;2022-09-09T01:54:55;99867.81;;;20.00;85.80
11672;BME280;5892;43.412;24.612;2022-09-09T01:57:25;99874.66;;;20.10;85.95
11672;BME280;5892;43.412;24.612;2022-09-09T02:00:02;99874.25;;;20.08;85.48
11672;BME280;5892;43.412;24.612;2022-09-09T02:02:37;99846.25;;;19.83;85.46
11672;BME280;5892;43.412;24.612;2022-09-09T02:05:14;99870.16;;;19.95;85.04
11672;BME280;5892;43.412;24.612;2022-09-09T02:07:47;99879.00;;;20.04;85.02
11672;BME280;5892;43.412;24.612;2022-09-09T02:10:17;99873.34;;;19.93;85.05
11672;BME280;5892;43.412;24.612;2022-09-09T02:12:51;99880.84;;;19.89;85.52
11672;BME280;5892;43.412;24.612;2022-09-09T02:15:23;99883.66;;;19.93;85.17
11672;BME280;5892;43.412;24.612;2022-09-09T02:17:57;99888.41;;;19.88;85.56
11672;BME280;5892;43.412;24.612;2022-09-09T02:20:25;99871.28;;;19.83;85.28
11672;BME280;5892;43.412;24.612;2022-09-09T02:22:53;99879.72;;;19.94;85.38
11672;BME280;5892;43.412;24.612;2022-09-09T02:25:24;99880.09;;;19.92;85.53
11672;BME280;5892;43.412;24.612;2022-09-09T02:27:52;99875.31;;;19.93;86.14
11672;BME280;5892;43.412;24.612;2022-09-09T02:30:20;99879.66;;;19.90;86.34
11672;BME280;5892;43.412;24.612;2022-09-09T02:32:48;99884.41;;;19.89;85.51
11672;BME280;5892;43.412;24.612;2022-09-09T02:35:21;99885.97;;;19.83;85.72
11672;BME280;5892;43.412;24.612;2022-09-09T02:37:53;99880.34;;;19.76;86.94
11672;BME280;5892;43.412;24.612;2022-09-09T02:40:21;99887.91;;;19.79;87.44
11672;BME280;5892;43.412;24.612;2022-09-09T02:42:49;99877.91;;;19.71;87.26
11672;BME280;5892;43.412;24.612;2022-09-09T02:45:18;99881.94;;;19.77;87.78
11672;BME280;5892;43.412;24.612;2022-09-09T02:47:50;99889.94;;;19.86;88.04
11672;BME280;5892;43.412;24.612;2022-09-09T02:50:25;99880.97;;;19.63;88.39
11672;BME280;5892;43.412;24.612;2022-09-09T02:53:02;99882.31;;;19.76;87.96
11672;BME280;5892;43.412;24.612;2022-09-09T02:55:38;99886.22;;;19.68;88.26
11672;BME280;5892;43.412;24.612;2022-09-09T02:58:07;99883.03;;;19.69;87.21
11672;BME280;5892;43.412;24.612;2022-09-09T03:00:35;99878.69;;;19.72;86.63
11672;BME280;5892;43.412;24.612;2022-09-09T03:03:03;99868.34;;;19.69;86.87
11672;BME280;5892;43.412;24.612;2022-09-09T03:05:31;99886.63;;;19.70;87.59
11672;BME280;5892;43.412;24.612;2022-09-09T03:07:58;99875.50;;;19.70;88.15
11672;BME280;5892;43.412;24.612;2022-09-09T03:10:25;99872.72;;;19.70;87.55
11672;BME280;5892;43.412;24.612;2022-09-09T03:12:52;99871.50;;;19.67;87.07
11672;BME280;5892;43.412;24.612;2022-09-09T03:15:20;99873.16;;;19.72;86.62
11672;BME280;5892;43.412;24.612;2022-09-09T03:17:47;99886.94;;;19.61;86.14
11672;BME280;5892;43.412;24.612;2022-09-09T03:20:14;99859.50;;;19.60;85.76
11672;BME280;5892;43.412;24.612;2022-09-09T03:22:42;99848.31;;;19.53;85.99
11672;BME280;5892;43.412;24.612;2022-09-09T03:25:10;99879.88;;;19.71;85.70
11672;BME280;5892;43.412;24.612;2022-09-09T03:27:37;99877.09;;;19.71;86.17
11672;BME280;5892;43.412;24.612;2022-09-09T03:30:04;99880.69;;;19.71;85.21
11672;BME280;5892;43.412;24.612;2022-09-09T03:32:31;99846.31;;;19.50;82.19
11672;BME280;5892;43.412;24.612;2022-09-09T03:34:58;99887.88;;;19.76;84.62
11672;BME280;5892;43.412;24.612;2022-09-09T03:37:25;99878.63;;;19.65;84.28
11672;BME280;5892;43.412;24.612;2022-09-09T03:39:54;99887.41;;;19.70;84.90
11672;BME280;5892;43.412;24.612;2022-09-09T03:42:21;99895.41;;;19.75;85.83
11672;BME280;5892;43.412;24.612;2022-09-09T03:44:48;99892.16;;;19.66;87.14
11672;BME280;5892;43.412;24.612;2022-09-09T03:47:17;99882.13;;;19.58;87.09
11672;BME280;5892;43.412;24.612;2022-09-09T03:49:44;99894.56;;;19.68;87.89
11672;BME280;5892;43.412;24.612;2022-09-09T03:52:12;99900.78;;;19.58;88.65
11672;BME280;5892;43.412;24.612;2022-09-09T03:54:39;99878.25;;;19.33;89.40
11672;BME280;5892;43.412;24.612;2022-09-09T03:57:09;99892.75;;;19.49;89.27
11672;BME280;5892;43.412;24.612;2022-09-09T03:59:36;99893.19;;;19.51;89.25
11672;BME280;5892;43.412;24.612;2022-09-09T04:02:04;99892.84;;;19.56;88.59
11672;BME280;5892;43.412;24.612;2022-09-09T04:04:31;99897.72;;;19.70;87.23
11672;BME280;5892;43.412;24.612;2022-09-09T04:06:57;99893.88;;;19.81;87.18
11672;BME280;5892;43.412;24.612;2022-09-09T04:09:24;99890.84;;;19.94;86.76
11672;BME280;5892;43.412;24.612;2022-09-09T04:11:51;99886.28;;;20.22;84.96
11672;BME280;5892;43.412;24.612;2022-09-09T04:14:20;99889.63;;;20.39;84.24
11672;BME280;5892;43.412;24.612;2022-09-09T04:16:47;99886.09;;;20.45;83.14
11672;BME280;5892;43.412;24.612;2022-09-09T04:19:14;99856.31;;;20.53;82.32
11672;BME280;5892;43.412;24.612;2022-09-09T04:21:41;99883.59;;;20.88;82.04
11672;BME280;5892;43.412;24.612;2022-09-09T04:24:08;99884.84;;;21.01;81.59
11672;BME280;5892;43.412;24.612;2022-09-09T04:26:36;99865.34;;;21.04;80.42
11672;BME280;5892;43.412;24.612;2022-09-09T04:29:03;99877.81;;;21.32;79.81
11672;BME280;5892;43.412;24.612;2022-09-09T04:31:33;99885.47;;;21.63;78.42
11672;BME280;5892;43.412;24.612;2022-09-09T04:34:00;99880.72;;;21.85;77.40
11672;BME280;5892;43.412;24.612;2022-09-09T04:36:31;99887.56;;;22.05;77.36
11672;BME280;5892;43.412;24.612;2022-09-09T04:38:58;99889.97;;;22.17;76.93
11672;BME280;5892;43.412;24.612;2022-09-09T04:41:26;99892.34;;;22.29;76.44
11672;BME280;5892;43.412;24.612;2022-09-09T04:43:53;99898.31;;;22.46;75.43
11672;BME280;5892;43.412;24.612;2022-09-09T04:46:20;99903.84;;;22.67;75.01
11672;BME280;5892;43.412;24.612;2022-09-09T04:48:49;99903.06;;;22.91;73.39
11672;BME280;5892;43.412;24.612;2022-09-09T04:51:16;99891.44;;;22.93;72.70
11672;BME280;5892;43.412;24.612;2022-09-09T04:53:43;99902.94;;;23.19;71.33
11672;BME280;5892;43.412;24.612;2022-09-09T04:56:13;99899.69;;;23.32;69.85
11672;BME280;5892;43.412;24.612;2022-09-09T04:58:41;99896.00;;;23.56;68.55
11672;BME280;5892;43.412;24.612;2022-09-09T05:01:09;99910.69;;;23.74;68.13
11672;BME280;5892;43.412;24.612;2022-09-09T05:03:37;99921.47;;;23.79;67.97
11672;BME280;5892;43.412;24.612;2022-09-09T05:06:10;99911.38;;;23.92;68.00
11672;BME280;5892;43.412;24.612;2022-09-09T05:08:38;99913.69;;;24.04;67.46
11672;BME280;5892;43.412;24.612;2022-09-09T05:11:13;99917.31;;;24.01;67.61
11672;BME280;5892;43.412;24.612;2022-09-09T05:13:40;99915.25;;;24.13;67.13
11672;BME280;5892;43.412;24.612;2022-09-09T05:16:07;99919.91;;;24.30;66.57
11672;BME280;5892;43.412;24.612;2022-09-09T05:18:36;99906.75;;;24.27;64.95
11672;BME280;5892;43.412;24.612;2022-09-09T05:21:03;99918.13;;;24.50;63.73
11672;BME280;5892;43.412;24.612;2022-09-09T05:23:32;99894.63;;;24.40;64.28
11672;BME280;5892;43.412;24.612;2022-09-09T05:26:00;99894.06;;;24.56;63.25
11672;BME280;5892;43.412;24.612;2022-09-09T05:28:27;99848.03;;;24.57;61.53
11672;BME280;5892;43.412;24.612;2022-09-09T05:30:58;99905.72;;;24.96;61.36
11672;BME280;5892;43.412;24.612;2022-09-09T05:33:26;99916.63;;;25.20;60.51
11672;BME280;5892;43.412;24.612;2022-09-09T05:35:57;99911.56;;;25.42;59.01
11672;BME280;5892;43.412;24.612;2022-09-09T05:38:24;99908.03;;;25.68;58.93
11672;BME280;5892;43.412;24.612;2022-09-09T05:40:53;99895.88;;;26.29;54.98
11672;BME280;5892;43.412;24.612;2022-09-09T05:43:20;99892.28;;;26.51;53.58
11672;BME280;5892;43.412;24.612;2022-09-09T05:45:48;99876.50;;;26.58;52.19
11672;BME280;5892;43.412;24.612;2022-09-09T05:48:28;99903.97;;;26.70;50.86
11672;BME280;5892;43.412;24.612;2022-09-09T05:50:55;99909.44;;;26.57;50.66
11672;BME280;5892;43.412;24.612;2022-09-09T05:53:22;99901.66;;;26.65;48.51
11672;BME280;5892;43.412;24.612;2022-09-09T05:55:49;99908.03;;;26.69;49.95
11672;BME280;5892;43.412;24.612;2022-09-09T05:58:17;99905.41;;;27.01;49.62
11672;BME280;5892;43.412;24.612;2022-09-09T06:00:44;99902.91;;;27.26;46.28
11672;BME280;5892;43.412;24.612;2022-09-09T06:03:11;99911.03;;;27.40;45.99
11672;BME280;5892;43.412;24.612;2022-09-09T06:05:38;99914.38;;;27.55;46.77
11672;BME280;5892;43.412;24.612;2022-09-09T06:08:05;99908.59;;;27.62;46.95
11672;BME280;5892;43.412;24.612;2022-09-09T06:10:32;99914.69;;;27.77;46.37
11672;BME280;5892;43.412;24.612;2022-09-09T06:13:00;99901.59;;;27.87;46.24
11672;BME280;5892;43.412;24.612;2022-09-09T06:15:28;99863.84;;;27.84;45.98
11672;BME280;5892;43.412;24.612;2022-09-09T06:17:56;99893.53;;;28.05;45.73
11672;BME280;5892;43.412;24.612;2022-09-09T06:20:22;99905.94;;;28.07;44.69
11672;BME280;5892;43.412;24.612;2022-09-09T06:22:50;99910.06;;;28.03;46.27
11672;BME280;5892;43.412;24.612;2022-09-09T06:25:17;99916.00;;;28.25;46.35
11672;BME280;5892;43.412;24.612;2022-09-09T06:27:48;99891.50;;;28.38;45.66
11672;BME280;5892;43.412;24.612;2022-09-09T06:30:16;99910.88;;;28.68;44.29
11672;BME280;5892;43.412;24.612;2022-09-09T06:32:45;99909.63;;;28.69;44.61
11672;BME280;5892;43.412;24.612;2022-09-09T06:35:12;99907.69;;;28.66;44.44
11672;BME280;5892;43.412;24.612;2022-09-09T06:37:44;99913.66;;;28.84;44.35
11672;BME280;5892;43.412;24.612;2022-09-09T06:40:14;99911.84;;;29.06;44.32
11672;BME280;5892;43.412;24.612;2022-09-09T06:42:41;99907.69;;;29.40;44.15
11672;BME280;5892;43.412;24.612;2022-09-09T06:45:09;99912.22;;;29.50;43.99
11672;BME280;5892;43.412;24.612;2022-09-09T06:47:36;99915.72;;;29.54;45.48
11672;BME280;5892;43.412;24.612;2022-09-09T06:50:05;99918.47;;;29.70;45.24
11672;BME280;5892;43.412;24.612;2022-09-09T06:52:32;99913.38;;;29.65;44.28
11672;BME280;5892;43.412;24.612;2022-09-09T06:55:00;99914.56;;;29.39;44.30
11672;BME280;5892;43.412;24.612;2022-09-09T06:57:26;99917.03;;;29.37;44.80
11672;BME280;5892;43.412;24.612;2022-09-09T06:59:53;99918.31;;;29.48;44.75
11672;BME280;5892;43.412;24.612;2022-09-09T07:02:20;99911.69;;;29.80;44.32
11672;BME280;5892;43.412;24.612;2022-09-09T07:04:47;99926.63;;;30.31;41.95
11672;BME280;5892;43.412;24.612;2022-09-09T07:07:17;99921.72;;;30.57;39.30
11672;BME280;5892;43.412;24.612;2022-09-09T07:09:44;99926.72;;;30.66;37.39
11672;BME280;5892;43.412;24.612;2022-09-09T07:12:12;99910.91;;;30.56;37.27
11672;BME280;5892;43.412;24.612;2022-09-09T07:14:39;99919.31;;;30.68;36.55
11672;BME280;5892;43.412;24.612;2022-09-09T07:17:05;99919.97;;;30.85;36.91
11672;BME280;5892;43.412;24.612;2022-09-09T07:19:32;99924.09;;;30.93;37.15
11672;BME280;5892;43.412;24.612;2022-09-09T07:21:59;99918.63;;;31.11;36.29
11672;BME280;5892;43.412;24.612;2022-09-09T07:24:29;99908.63;;;31.20;34.89
11672;BME280;5892;43.412;24.612;2022-09-09T07:26:56;99917.31;;;31.25;35.04
11672;BME280;5892;43.412;24.612;2022-09-09T07:29:22;99914.56;;;31.34;34.76
11672;BME280;5892;43.412;24.612;2022-09-09T07:31:49;99916.59;;;31.34;34.63
11672;BME280;5892;43.412;24.612;2022-09-09T07:34:16;99924.00;;;31.62;35.17
11672;BME280;5892;43.412;24.612;2022-09-09T07:36:43;99915.00;;;31.33;34.51
11672;BME280;5892;43.412;24.612;2022-09-09T07:39:13;99925.00;;;31.46;34.51
11672;BME280;5892;43.412;24.612;2022-09-09T07:41:45;99888.59;;;31.58;35.00
11672;BME280;5892;43.412;24.612;2022-09-09T07:44:13;99924.09;;;31.71;34.89
11672;BME280;5892;43.412;24.612;2022-09-09T07:46:41;99917.34;;;31.78;34.64
11672;BME280;5892;43.412;24.612;2022-09-09T07:49:09;99913.94;;;31.92;35.09
11672;BME280;5892;43.412;24.612;2022-09-09T07:51:37;99927.50;;;31.97;33.83
11672;BME280;5892;43.412;24.612;2022-09-09T07:54:07;99924.19;;;31.98;34.91
11672;BME280;5892;43.412;24.612;2022-09-09T07:56:34;99902.66;;;32.01;34.76
11672;BME280;5892;43.412;24.612;2022-09-09T07:59:03;99927.13;;;32.17;34.05
11672;BME280;5892;43.412;24.612;2022-09-09T08:01:34;99928.72;;;32.18;34.04
11672;BME280;5892;43.412;24.612;2022-09-09T08:04:06;99932.03;;;32.25;33.59
11672;BME280;5892;43.412;24.612;2022-09-09T08:06:37;99930.38;;;32.06;34.17
11672;BME280;5892;43.412;24.612;2022-09-09T08:09:05;99924.22;;;32.38;34.22
11672;BME280;5892;43.412;24.612;2022-09-09T08:11:33;99926.13;;;32.51;33.86
11672;BME280;5892;43.412;24.612;2022-09-09T08:14:01;99918.75;;;32.71;32.67
11672;BME280;5892;43.412;24.612;2022-09-09T08:16:33;99925.63;;;32.43;33.13
11672;BME280;5892;43.412;24.612;2022-09-09T08:19:02;99905.63;;;32.37;33.11
11672;BME280;5892;43.412;24.612;2022-09-09T08:21:31;99912.25;;;32.62;32.93
11672;BME280;5892;43.412;24.612;2022-09-09T08:24:00;99902.78;;;32.56;32.67
11672;BME280;5892;43.412;24.612;2022-09-09T08:26:28;99895.94;;;32.75;32.00
11672;BME280;5892;43.412;24.612;2022-09-09T08:28:57;99892.44;;;32.89;32.20
11672;BME280;5892;43.412;24.612;2022-09-09T08:31:25;99898.13;;;32.98;32.22
11672;BME280;5892;43.412;24.612;2022-09-09T08:33:55;99888.53;;;32.87;32.01
11672;BME280;5892;43.412;24.612;2022-09-09T08:36:24;99894.66;;;33.22;31.89
11672;BME280;5892;43.412;24.612;2022-09-09T08:38:53;99887.72;;;33.32;31.86
11672;BME280;5892;43.412;24.612;2022-09-09T08:41:38;99898.09;;;33.44;30.86
11672;BME280;5892;43.412;24.612;2022-09-09T08:44:08;99902.50;;;33.45;32.12
11672;BME280;5892;43.412;24.612;2022-09-09T08:46:44;99891.19;;;33.27;32.60
11672;BME280;5892;43.412;24.612;2022-09-09T08:49:24;99892.13;;;33.05;32.58
11672;BME280;5892;43.412;24.612;2022-09-09T08:51:57;99901.72;;;33.35;32.73
11672;BME280;5892;43.412;24.612;2022-09-09T08:54:26;99904.41;;;33.48;32.68
11672;BME280;5892;43.412;24.612;2022-09-09T08:56:56;99907.69;;;33.55;33.26
11672;BME280;5892;43.412;24.612;2022-09-09T08:59:23;99891.78;;;33.40;32.83
11672;BME280;5892;43.412;24.612;2022-09-09T09:01:57;99897.47;;;33.31;33.35
11672;BME280;5892;43.412;24.612;2022-09-09T09:04:50;99889.22;;;33.51;31.94
11672;BME280;5892;43.412;24.612;2022-09-09T09:07:25;99900.41;;;33.63;32.81
11672;BME280;5892;43.412;24.612;2022-09-09T09:10:00;99894.91;;;33.69;31.83
11672;BME280;5892;43.412;24.612;2022-09-09T09:12:39;99899.34;;;33.52;32.32
11672;BME280;5892;43.412;24.612;2022-09-09T09:15:14;99891.16;;;33.36;32.89
11672;BME280;5892;43.412;24.612;2022-09-09T09:17:49;99868.50;;;33.17;32.64
11672;BME280;5892;43.412;24.612;2022-09-09T09:20:23;99867.22;;;33.00;33.02
11672;BME280;5892;43.412;24.612;2022-09-09T09:22:54;99885.00;;;33.37;33.21
11672;BME280;5892;43.412;24.612;2022-09-09T09:25:27;99880.50;;;33.73;32.22
11672;BME280;5892;43.412;24.612;2022-09-09T09:27:59;99880.72;;;34.02;32.14
11672;BME280;5892;43.412;24.612;2022-09-09T09:30:31;99874.06;;;33.63;32.24
11672;BME280;5892;43.412;24.612;2022-09-09T09:33:03;99879.09;;;33.68;32.07
11672;BME280;5892;43.412;24.612;2022-09-09T09:35:33;99866.75;;;33.80;32.30
11672;BME280;5892;43.412;24.612;2022-09-09T09:38:00;99872.22;;;33.93;32.15
11672;BME280;5892;43.412;24.612;2022-09-09T09:40:28;99869.16;;;33.63;32.30
11672;BME280;5892;43.412;24.612;2022-09-09T09:42:57;99863.41;;;33.82;32.60
11672;BME280;5892;43.412;24.612;2022-09-09T09:45:32;99872.41;;;34.22;32.45
11672;BME280;5892;43.412;24.612;2022-09-09T09:48:01;99870.56;;;34.34;31.77
11672;BME280;5892;43.412;24.612;2022-09-09T09:50:31;99867.78;;;34.25;31.79
11672;BME280;5892;43.412;24.612;2022-09-09T09:53:03;99869.22;;;33.96;32.51
11672;BME280;5892;43.412;24.612;2022-09-09T09:55:33;99873.31;;;33.95;32.21
11672;BME280;5892;43.412;24.612;2022-09-09T09:58:03;99869.88;;;34.15;32.19
11672;BME280;5892;43.412;24.612;2022-09-09T10:00:31;99880.22;;;34.36;31.87
11672;BME280;5892;43.412;24.612;2022-09-09T10:03:00;99872.81;;;34.30;32.32
11672;BME280;5892;43.412;24.612;2022-09-09T10:05:28;99852.44;;;33.98;32.16
11672;BME280;5892;43.412;24.612;2022-09-09T10:08:05;99869.22;;;33.96;32.54
11672;BME280;5892;43.412;24.612;2022-09-09T10:10:40;99873.84;;;34.18;32.17
11672;BME280;5892;43.412;24.612;2022-09-09T10:13:14;99857.03;;;34.29;32.25
11672;BME280;5892;43.412;24.612;2022-09-09T10:15:49;99869.38;;;34.73;31.76
11672;BME280;5892;43.412;24.612;2022-09-09T10:18:36;99873.97;;;35.09;31.19
11672;BME280;5892;43.412;24.612;2022-09-09T10:21:13;99867.56;;;35.14;30.95
11672;BME280;5892;43.412;24.612;2022-09-09T10:23:57;99865.09;;;34.54;31.21
11672;BME280;5892;43.412;24.612;2022-09-09T10:26:38;99865.19;;;34.36;31.83
11672;BME280;5892;43.412;24.612;2022-09-09T10:29:28;99869.38;;;34.26;32.01
11672;BME280;5892;43.412;24.612;2022-09-09T10:32:10;99824.16;;;33.62;31.91
11672;BME280;5892;43.412;24.612;2022-09-09T10:34:55;99862.88;;;33.92;32.00
11672;BME280;5892;43.412;24.612;2022-09-09T10:37:32;99866.41;;;34.20;31.46
11672;BME280;5892;43.412;24.612;2022-09-09T10:40:15;99852.78;;;34.24;30.72
11672;BME280;5892;43.412;24.612;2022-09-09T10:42:47;99855.09;;;34.35;30.21
11672;BME280;5892;43.412;24.612;2022-09-09T10:45:17;99857.19;;;34.01;31.24
11672;BME280;5892;43.412;24.612;2022-09-09T10:48:09;99859.44;;;34.45;30.80
11672;BME280;5892;43.412;24.612;2022-09-09T10:50:49;99870.56;;;34.81;30.66
11672;BME280;5892;43.412;24.612;2022-09-09T10:53:25;99849.63;;;34.46;30.00
11672;BME280;5892;43.412;24.612;2022-09-09T10:55:59;99849.72;;;34.04;30.10
11672;BME280;5892;43.412;24.612;2022-09-09T10:58:33;99856.72;;;34.51;29.57
11672;BME280;5892;43.412;24.612;2022-09-09T11:01:10;99843.75;;;34.50;30.45
11672;BME280;5892;43.412;24.612;2022-09-09T11:03:40;99864.97;;;34.72;30.19
11672;BME280;5892;43.412;24.612;2022-09-09T11:06:13;99867.84;;;34.87;30.04
11672;BME280;5892;43.412;24.612;2022-09-09T11:08:41;99870.53;;;35.05;29.69
11672;BME280;5892;43.412;24.612;2022-09-09T11:11:13;99870.66;;;35.25;29.76
11672;BME280;5892;43.412;24.612;2022-09-09T11:13:47;99871.91;;;34.71;30.23
11672;BME280;5892;43.412;24.612;2022-09-09T11:16:23;99871.59;;;35.08;29.79
11672;BME280;5892;43.412;24.612;2022-09-09T11:18:54;99863.56;;;35.06;29.82
11672;BME280;5892;43.412;24.612;2022-09-09T11:21:27;99861.06;;;34.84;29.96
11672;BME280;5892;43.412;24.612;2022-09-09T11:23:58;99853.91;;;34.89;30.10
11672;BME280;5892;43.412;24.612;2022-09-09T11:26:33;99859.41;;;34.93;30.04
11672;BME280;5892;43.412;24.612;2022-09-09T11:29:17;99851.34;;;34.53;30.33
11672;BME280;5892;43.412;24.612;2022-09-09T11:32:00;99853.63;;;34.63;31.13
11672;BME280;5892;43.412;24.612;2022-09-09T11:34:42;99860.16;;;34.55;31.34
11672;BME280;5892;43.412;24.612;2022-09-09T11:37:21;99855.09;;;34.59;31.09
11672;BME280;5892;43.412;24.612;2022-09-09T11:40:16;99854.56;;;34.22;31.38
11672;BME280;5892;43.412;24.612;2022-09-09T11:42:47;99849.53;;;34.08;32.02
11672;BME280;5892;43.412;24.612;2022-09-09T11:45:23;99847.31;;;34.12;31.56
11672;BME280;5892;43.412;24.612;2022-09-09T11:47:55;99837.44;;;33.65;32.39
11672;BME280;5892;43.412;24.612;2022-09-09T11:50:32;99851.69;;;33.89;31.74
11672;BME280;5892;43.412;24.612;2022-09-09T11:53:19;99846.16;;;33.94;32.35
11672;BME280;5892;43.412;24.612;2022-09-09T11:55:48;99817.81;;;33.67;32.25
11672;BME280;5892;43.412;24.612;2022-09-09T11:58:33;99843.22;;;33.80;32.08
11672;BME280;5892;43.412;24.612;2022-09-09T12:04:11;99851.22;;;33.90;33.18
11672;BME280;5892;43.412;24.612;2022-09-09T12:06:45;99827.31;;;33.73;33.13
11672;BME280;5892;43.412;24.612;2022-09-09T12:09:25;99847.53;;;33.57;34.26
11672;BME280;5892;43.412;24.612;2022-09-09T12:12:05;99841.31;;;33.35;34.17
11672;BME280;5892;43.412;24.612;2022-09-09T12:14:44;99838.97;;;33.24;34.96
11672;BME280;5892;43.412;24.612;2022-09-09T12:17:22;99838.16;;;33.33;34.64
11672;BME280;5892;43.412;24.612;2022-09-09T12:20:01;99835.03;;;33.03;34.83
11672;BME280;5892;43.412;24.612;2022-09-09T12:22:37;99763.03;;;32.73;34.58
11672;BME280;5892;43.412;24.612;2022-09-09T12:25:16;99813.88;;;33.13;35.12
11672;BME280;5892;43.412;24.612;2022-09-09T12:27:57;99810.44;;;33.18;35.68
11672;BME280;5892;43.412;24.612;2022-09-09T12:30:34;99809.22;;;32.92;35.14
11672;BME280;5892;43.412;24.612;2022-09-09T12:33:10;99807.16;;;32.84;35.56
11672;BME280;5892;43.412;24.612;2022-09-09T12:35:38;99808.22;;;33.04;34.67
11672;BME280;5892;43.412;24.612;2022-09-09T12:38:11;99795.81;;;32.84;34.52
11672;BME280;5892;43.412;24.612;2022-09-09T12:40:40;99798.13;;;33.03;34.74
11672;BME280;5892;43.412;24.612;2022-09-09T12:43:17;99793.25;;;33.04;35.83
11672;BME280;5892;43.412;24.612;2022-09-09T12:45:49;99791.69;;;32.94;36.49
11672;BME280;5892;43.412;24.612;2022-09-09T12:48:27;99789.63;;;33.12;35.69
11672;BME280;5892;43.412;24.612;2022-09-09T12:50:55;99786.84;;;32.85;36.72
11672;BME280;5892;43.412;24.612;2022-09-09T12:53:24;99783.34;;;32.63;37.56
11672;BME280;5892;43.412;24.612;2022-09-09T12:55:54;99801.06;;;31.81;38.40
11672;BME280;5892;43.412;24.612;2022-09-09T12:58:22;99792.69;;;31.47;39.61
11672;BME280;5892;43.412;24.612;2022-09-09T13:00:52;99766.56;;;31.43;39.68
11672;BME280;5892;43.412;24.612;2022-09-09T13:03:22;99808.59;;;31.75;39.59
11672;BME280;5892;43.412;24.612;2022-09-09T13:05:50;99787.03;;;31.16;40.81
11672;BME280;5892;43.412;24.612;2022-09-09T13:08:18;99804.22;;;31.22;41.33
11672;BME280;5892;43.412;24.612;2022-09-09T13:10:48;99811.47;;;31.01;40.98
11672;BME280;5892;43.412;24.612;2022-09-09T13:13:22;99801.34;;;30.69;41.02
11672;BME280;5892;43.412;24.612;2022-09-09T13:15:53;99809.56;;;30.98;40.79
11672;BME280;5892;43.412;24.612;2022-09-09T13:18:22;99795.91;;;31.27;40.26
11672;BME280;5892;43.412;24.612;2022-09-09T13:20:50;99780.78;;;31.21;40.37
11672;BME280;5892;43.412;24.612;2022-09-09T13:23:19;99805.47;;;31.21;41.75
11672;BME280;5892;43.412;24.612;2022-09-09T13:25:53;99795.56;;;31.25;41.30